sensor_id;sensor_type;location;lat;lon;timestamp;pressure;altitude;pressure_sealevel;temperature;humidity
77450;BME280;66536;53.150;18.172;2024-02-21T00:01:51;101756.17;;;5.64;96.07
77450;BME280;66536;53.150;18.172;2024-02-21T00:04:17;101751.46;;;5.67;96.10
77450;BME280;66536;53.150;18.172;2024-02-21T00:06:44;101750.43;;;5.69;96.14
77450;BME280;66536;53.150;18.172;2024-02-21T00:09:11;101751.73;;;5.69;96.19
77450;BME280;66536;53.150;18.172;2024-02-21T00:11:37;101747.55;;;5.70;96.15
77450;BME280;66536;53.150;18.172;2024-02-21T00:14:03;101744.14;;;5.71;96.20
77450;BME280;66536;53.150;18.172;2024-02-21T00:16:30;101748.05;;;5.72;96.41
77450;BME280;66536;53.150;18.172;2024-02-21T00:18:56;101747.06;;;5.73;96.32
77450;BME280;66536;53.150;18.172;2024-02-21T00:21:22;101744.73;;;5.74;96.32
77450;BME280;66536;53.150;18.172;2024-02-21T00:23:48;101739.98;;;5.76;96.43
77450;BME280;66536;53.150;18.172;2024-02-21T00:26:16;101736.25;;;5.77;96.42
77450;BME280;66536;53.150;18.172;2024-02-21T00:28:42;101739.39;;;5.78;96.40
77450;BME280;66536;53.150;18.172;2024-02-21T00:31:10;101732.10;;;5.79;96.43
77450;BME280;66536;53.150;18.172;2024-02-21T00:33:39;101735.34;;;5.79;96.55
77450;BME280;66536;53.150;18.172;2024-02-21T00:36:05;101729.80;;;5.80;96.58
77450;BME280;66536;53.150;18.172;2024-02-21T00:38:31;101725.16;;;5.80;96.63
77450;BME280;66536;53.150;18.172;2024-02-21T00:41:00;101718.51;;;5.80;96.60
77450;BME280;66536;53.150;18.172;2024-02-21T00:43:26;101722.05;;;5.78;96.78
77450;BME280;66536;53.150;18.172;2024-02-21T00:45:52;101721.50;;;5.77;96.85
77450;BME280;66536;53.150;18.172;2024-02-21T00:48:18;101722.27;;;5.76;97.10
77450;BME280;66536;53.150;18.172;2024-02-21T00:50:44;101718.76;;;5.76;97.03
77450;BME280;66536;53.150;18.172;2024-02-21T00:53:10;101711.69;;;5.74;97.11
77450;BME280;66536;53.150;18.172;2024-02-21T00:55:36;101710.58;;;5.73;97.01
77450;BME280;66536;53.150;18.172;2024-02-21T00:58:02;101705.31;;;5.73;97.22
77450;BME280;66536;53.150;18.172;2024-02-21T01:00:29;101703.45;;;5.73;97.01
77450;BME280;66536;53.150;18.172;2024-02-21T01:02:55;101703.65;;;5.73;97.16
77450;BME280;66536;53.150;18.172;2024-02-21T01:05:21;101702.08;;;5.73;97.16
77450;BME280;66536;53.150;18.172;2024-02-21T01:07:48;101698.54;;;5.74;97.36
77450;BME280;66536;53.150;18.172;2024-02-21T01:10:14;101693.48;;;5.75;97.40
77450;BME280;66536;53.150;18.172;2024-02-21T01:12:40;101689.83;;;5.75;97.29
77450;BME280;66536;53.150;18.172;2024-02-21T01:15:07;101691.66;;;5.76;97.32
77450;BME280;66536;53.150;18.172;2024-02-21T01:17:33;101688.48;;;5.77;97.39
77450;BME280;66536;53.150;18.172;2024-02-21T01:19:59;101684.27;;;5.78;97.42
77450;BME280;66536;53.150;18.172;2024-02-21T01:22:25;101679.77;;;5.78;97.45
77450;BME280;66536;53.150;18.172;2024-02-21T01:24:51;101678.36;;;5.79;97.56
77450;BME280;66536;53.150;18.172;2024-02-21T01:27:17;101677.88;;;5.78;97.55
77450;BME280;66536;53.150;18.172;2024-02-21T01:29:43;101676.76;;;5.79;97.59
77450;BME280;66536;53.150;18.172;2024-02-21T01:32:09;101676.48;;;5.80;97.62
77450;BME280;66536;53.150;18.172;2024-02-21T01:34:36;101674.30;;;5.82;97.57
77450;BME280;66536;53.150;18.172;2024-02-21T01:37:03;101671.58;;;5.84;97.47
77450;BME280;66536;53.150;18.172;2024-02-21T01:39:30;101667.84;;;5.85;97.44
77450;BME280;66536;53.150;18.172;2024-02-21T01:41:56;101664.73;;;5.85;97.54
77450;BME280;66536;53.150;18.172;2024-02-21T01:44:22;101667.39;;;5.86;97.51
77450;BME280;66536;53.150;18.172;2024-02-21T01:46:48;101661.77;;;5.86;97.45
77450;BME280;66536;53.150;18.172;2024-02-21T01:49:15;101656.42;;;5.86;97.61
77450;BME280;66536;53.150;18.172;2024-02-21T01:51:41;101661.65;;;5.87;97.48
77450;BME280;66536;53.150;18.172;2024-02-21T01:54:08;101658.70;;;5.86;97.59
77450;BME280;66536;53.150;18.172;2024-02-21T01:56:34;101657.71;;;5.85;97.48
77450;BME280;66536;53.150;18.172;2024-02-21T01:59:01;101658.51;;;5.86;97.55
77450;BME280;66536;53.150;18.172;2024-02-21T02:01:29;101652.68;;;5.87;97.65
77450;BME280;66536;53.150;18.172;2024-02-21T02:03:55;101649.90;;;5.88;97.60
77450;BME280;66536;53.150;18.172;2024-02-21T02:06:21;101650.84;;;5.89;97.61
77450;BME280;66536;53.150;18.172;2024-02-21T02:08:48;101645.80;;;5.89;97.69
77450;BME280;66536;53.150;18.172;2024-02-21T02:11:14;101646.17;;;5.91;97.60
77450;BME280;66536;53.150;18.172;2024-02-21T02:13:40;101645.23;;;5.92;97.74
77450;BME280;66536;53.150;18.172;2024-02-21T02:16:06;101645.36;;;5.90;97.83
77450;BME280;66536;53.150;18.172;2024-02-21T02:18:33;101637.46;;;5.91;97.82
77450;BME280;66536;53.150;18.172;2024-02-21T02:20:59;101634.17;;;5.91;97.99
77450;BME280;66536;53.150;18.172;2024-02-21T02:23:26;101633.25;;;5.92;97.93
77450;BME280;66536;53.150;18.172;2024-02-21T02:25:53;101629.32;;;5.93;97.80
77450;BME280;66536;53.150;18.172;2024-02-21T02:28:20;101625.60;;;5.94;97.78
77450;BME280;66536;53.150;18.172;2024-02-21T02:30:47;101628.42;;;5.95;97.73
77450;BME280;66536;53.150;18.172;2024-02-21T02:33:14;101624.35;;;5.95;97.65
77450;BME280;66536;53.150;18.172;2024-02-21T02:35:40;101624.19;;;5.95;97.70
77450;BME280;66536;53.150;18.172;2024-02-21T02:38:07;101619.33;;;5.94;97.88
77450;BME280;66536;53.150;18.172;2024-02-21T02:40:33;101617.90;;;5.94;98.02
77450;BME280;66536;53.150;18.172;2024-02-21T02:43:00;101617.55;;;5.95;97.89
77450;BME280;66536;53.150;18.172;2024-02-21T02:45:26;101620.11;;;5.95;97.92
77450;BME280;66536;53.150;18.172;2024-02-21T02:47:53;101615.48;;;5.95;97.93
77450;BME280;66536;53.150;18.172;2024-02-21T02:50:21;101612.98;;;5.94;97.80
77450;BME280;66536;53.150;18.172;2024-02-21T02:52:47;101608.77;;;5.95;97.87
77450;BME280;66536;53.150;18.172;2024-02-21T02:55:13;101604.40;;;5.94;97.79
77450;BME280;66536;53.150;18.172;2024-02-21T02:57:39;101606.88;;;5.95;97.75
77450;BME280;66536;53.150;18.172;2024-02-21T03:00:09;101597.34;;;5.94;98.04
77450;BME280;66536;53.150;18.172;2024-02-21T03:02:38;101598.48;;;5.93;97.71
77450;BME280;66536;53.150;18.172;2024-02-21T03:05:13;101587.61;;;5.94;97.84
77450;BME280;66536;53.150;18.172;2024-02-21T03:07:40;101588.98;;;5.94;97.82
77450;BME280;66536;53.150;18.172;2024-02-21T03:10:07;101590.69;;;5.94;97.81
77450;BME280;66536;53.150;18.172;2024-02-21T03:12:33;101592.27;;;5.94;97.89
77450;BME280;66536;53.150;18.172;2024-02-21T03:15:00;101588.19;;;5.95;97.90
77450;BME280;66536;53.150;18.172;2024-02-21T03:17:26;101588.02;;;5.97;97.80
77450;BME280;66536;53.150;18.172;2024-02-21T03:19:53;101586.73;;;5.98;97.75
77450;BME280;66536;53.150;18.172;2024-02-21T03:22:22;101585.73;;;5.99;97.75
77450;BME280;66536;53.150;18.172;2024-02-21T03:24:49;101586.98;;;6.00;97.73
77450;BME280;66536;53.150;18.172;2024-02-21T03:27:15;101582.33;;;6.01;97.78
77450;BME280;66536;53.150;18.172;2024-02-21T03:29:41;101580.63;;;6.00;97.70
77450;BME280;66536;53.150;18.172;2024-02-21T03:32:07;101578.58;;;6.00;97.87
77450;BME280;66536;53.150;18.172;2024-02-21T03:34:33;101584.52;;;6.01;97.88
77450;BME280;66536;53.150;18.172;2024-02-21T03:36:59;101579.38;;;6.01;97.79
77450;BME280;66536;53.150;18.172;2024-02-21T03:39:26;101577.71;;;6.00;97.85
77450;BME280;66536;53.150;18.172;2024-02-21T03:41:52;101574.30;;;6.00;97.98
77450;BME280;66536;53.150;18.172;2024-02-21T03:44:18;101573.05;;;6.01;97.94
77450;BME280;66536;53.150;18.172;2024-02-21T03:46:44;101570.72;;;6.00;98.04
77450;BME280;66536;53.150;18.172;2024-02-21T03:49:10;101571.80;;;6.01;97.96
77450;BME280;66536;53.150;18.172;2024-02-21T03:51:36;101568.39;;;6.03;97.98
77450;BME280;66536;53.150;18.172;2024-02-21T03:54:02;101563.85;;;6.04;97.95
77450;BME280;66536;53.150;18.172;2024-02-21T03:56:28;101558.45;;;6.05;97.90
77450;BME280;66536;53.150;18.172;2024-02-21T03:58:54;101556.29;;;6.06;97.91
77450;BME280;66536;53.150;18.172;2024-02-21T04:01:21;101555.90;;;6.06;97.91
77450;BME280;66536;53.150;18.172;2024-02-21T04:03:47;101552.39;;;6.07;98.01
77450;BME280;66536;53.150;18.172;2024-02-21T04:06:13;101553.02;;;6.07;98.01
77450;BME280;66536;53.150;18.172;2024-02-21T04:08:39;101551.33;;;6.07;97.92
77450;BME280;66536;53.150;18.172;2024-02-21T04:11:05;101551.64;;;6.07;97.96
77450;BME280;66536;53.150;18.172;2024-02-21T04:13:31;101547.77;;;6.07;97.98
77450;BME280;66536;53.150;18.172;2024-02-21T04:15:57;101547.51;;;6.08;98.07
77450;BME280;66536;53.150;18.172;2024-02-21T04:18:23;101548.29;;;6.08;98.20
77450;BME280;66536;53.150;18.172;2024-02-21T04:20:51;101543.77;;;6.09;98.12
77450;BME280;66536;53.150;18.172;2024-02-21T04:23:17;101543.18;;;6.10;98.30
77450;BME280;66536;53.150;18.172;2024-02-21T04:25:43;101539.06;;;6.10;98.11
77450;BME280;66536;53.150;18.172;2024-02-21T04:28:09;101531.84;;;6.10;98.15
77450;BME280;66536;53.150;18.172;2024-02-21T04:30:35;101532.71;;;6.10;98.29
77450;BME280;66536;53.150;18.172;2024-02-21T04:33:01;101530.21;;;6.09;98.31
77450;BME280;66536;53.150;18.172;2024-02-21T04:35:27;101525.96;;;6.09;98.25
77450;BME280;66536;53.150;18.172;2024-02-21T04:37:53;101525.32;;;6.09;98.51
77450;BME280;66536;53.150;18.172;2024-02-21T04:40:20;101523.20;;;6.09;98.52
77450;BME280;66536;53.150;18.172;2024-02-21T04:42:46;101520.15;;;6.09;98.55
77450;BME280;66536;53.150;18.172;2024-02-21T04:45:12;101521.00;;;6.09;98.51
77450;BME280;66536;53.150;18.172;2024-02-21T04:47:38;101512.92;;;6.09;98.64
77450;BME280;66536;53.150;18.172;2024-02-21T04:50:04;101512.21;;;6.09;98.62
77450;BME280;66536;53.150;18.172;2024-02-21T04:52:31;101509.69;;;6.09;98.66
77450;BME280;66536;53.150;18.172;2024-02-21T04:54:57;101504.80;;;6.08;98.68
77450;BME280;66536;53.150;18.172;2024-02-21T04:57:24;101504.11;;;6.08;98.76
77450;BME280;66536;53.150;18.172;2024-02-21T04:59:51;101502.09;;;6.08;98.71
77450;BME280;66536;53.150;18.172;2024-02-21T05:02:17;101498.11;;;6.08;98.69
77450;BME280;66536;53.150;18.172;2024-02-21T05:04:43;101495.76;;;6.08;98.85
77450;BME280;66536;53.150;18.172;2024-02-21T05:07:10;101493.23;;;6.07;98.74
77450;BME280;66536;53.150;18.172;2024-02-21T05:09:37;101496.30;;;6.07;98.75
77450;BME280;66536;53.150;18.172;2024-02-21T05:12:03;101495.02;;;6.08;98.89
77450;BME280;66536;53.150;18.172;2024-02-21T05:14:30;101489.88;;;6.08;98.92
77450;BME280;66536;53.150;18.172;2024-02-21T05:16:57;101488.50;;;6.08;98.90
77450;BME280;66536;53.150;18.172;2024-02-21T05:19:23;101484.61;;;6.08;98.82
77450;BME280;66536;53.150;18.172;2024-02-21T05:21:49;101481.56;;;6.08;98.89
77450;BME280;66536;53.150;18.172;2024-02-21T05:24:15;101475.05;;;6.08;98.93
77450;BME280;66536;53.150;18.172;2024-02-21T05:26:41;101475.44;;;6.07;98.99
77450;BME280;66536;53.150;18.172;2024-02-21T05:29:07;101470.64;;;6.07;98.90
77450;BME280;66536;53.150;18.172;2024-02-21T05:31:55;101469.11;;;6.07;98.85
77450;BME280;66536;53.150;18.172;2024-02-21T05:34:23;101463.16;;;6.08;98.91
77450;BME280;66536;53.150;18.172;2024-02-21T05:36:49;101454.23;;;6.08;98.92
77450;BME280;66536;53.150;18.172;2024-02-21T05:39:15;101455.09;;;6.08;99.01
77450;BME280;66536;53.150;18.172;2024-02-21T05:41:43;101452.42;;;6.08;99.19
77450;BME280;66536;53.150;18.172;2024-02-21T05:44:10;101452.37;;;6.07;99.12
77450;BME280;66536;53.150;18.172;2024-02-21T05:46:37;101450.31;;;6.07;99.09
77450;BME280;66536;53.150;18.172;2024-02-21T05:49:03;101453.84;;;6.07;99.19
77450;BME280;66536;53.150;18.172;2024-02-21T05:51:32;101453.11;;;6.08;99.28
77450;BME280;66536;53.150;18.172;2024-02-21T05:53:59;101454.45;;;6.08;99.22
77450;BME280;66536;53.150;18.172;2024-02-21T05:56:26;101447.77;;;6.08;99.28
77450;BME280;66536;53.150;18.172;2024-02-21T05:58:52;101449.20;;;6.09;99.31
77450;BME280;66536;53.150;18.172;2024-02-21T06:01:18;101446.42;;;6.09;99.18
77450;BME280;66536;53.150;18.172;2024-02-21T06:03:44;101441.33;;;6.09;99.16
77450;BME280;66536;53.150;18.172;2024-02-21T06:06:11;101435.64;;;6.09;99.17
77450;BME280;66536;53.150;18.172;2024-02-21T06:08:39;101436.90;;;6.10;99.25
77450;BME280;66536;53.150;18.172;2024-02-21T06:11:05;101439.15;;;6.12;99.27
77450;BME280;66536;53.150;18.172;2024-02-21T06:13:31;101438.31;;;6.13;99.28
77450;BME280;66536;53.150;18.172;2024-02-21T06:15:57;101436.45;;;6.15;99.24
77450;BME280;66536;53.150;18.172;2024-02-21T06:18:23;101436.39;;;6.17;99.21
77450;BME280;66536;53.150;18.172;2024-02-21T06:20:50;101433.40;;;6.18;99.22
77450;BME280;66536;53.150;18.172;2024-02-21T06:23:16;101435.91;;;6.18;99.31
77450;BME280;66536;53.150;18.172;2024-02-21T06:25:42;101431.66;;;6.20;99.27
77450;BME280;66536;53.150;18.172;2024-02-21T06:28:09;101427.20;;;6.21;99.17
77450;BME280;66536;53.150;18.172;2024-02-21T06:30:35;101429.75;;;6.23;99.22
77450;BME280;66536;53.150;18.172;2024-02-21T06:33:01;101429.36;;;6.25;99.10
77450;BME280;66536;53.150;18.172;2024-02-21T06:35:29;101431.16;;;6.28;99.05
77450;BME280;66536;53.150;18.172;2024-02-21T06:37:55;101426.02;;;6.29;98.99
77450;BME280;66536;53.150;18.172;2024-02-21T06:40:22;101429.17;;;6.30;99.06
77450;BME280;66536;53.150;18.172;2024-02-21T06:42:50;101422.68;;;6.32;98.89
77450;BME280;66536;53.150;18.172;2024-02-21T06:45:17;101418.17;;;6.34;98.95
77450;BME280;66536;53.150;18.172;2024-02-21T06:47:43;101416.92;;;6.36;98.87
77450;BME280;66536;53.150;18.172;2024-02-21T06:50:09;101414.73;;;6.37;98.72
77450;BME280;66536;53.150;18.172;2024-02-21T06:52:36;101408.52;;;6.39;98.79
77450;BME280;66536;53.150;18.172;2024-02-21T06:55:03;101407.35;;;6.42;98.76
77450;BME280;66536;53.150;18.172;2024-02-21T06:57:29;101408.93;;;6.43;98.74
77450;BME280;66536;53.150;18.172;2024-02-21T06:59:55;101411.02;;;6.45;98.63
77450;BME280;66536;53.150;18.172;2024-02-21T07:02:21;101408.35;;;6.47;98.58
77450;BME280;66536;53.150;18.172;2024-02-21T07:04:47;101404.48;;;6.51;98.55
77450;BME280;66536;53.150;18.172;2024-02-21T07:07:14;101403.10;;;6.56;98.61
77450;BME280;66536;53.150;18.172;2024-02-21T07:09:40;101404.73;;;6.60;98.35
77450;BME280;66536;53.150;18.172;2024-02-21T07:12:06;101398.70;;;6.62;98.38
77450;BME280;66536;53.150;18.172;2024-02-21T07:14:33;101393.97;;;6.64;98.22
77450;BME280;66536;53.150;18.172;2024-02-21T07:16:59;101391.00;;;6.68;98.08
77450;BME280;66536;53.150;18.172;2024-02-21T07:19:25;101385.10;;;6.72;98.09
77450;BME280;66536;53.150;18.172;2024-02-21T07:21:52;101379.25;;;6.74;97.84
77450;BME280;66536;53.150;18.172;2024-02-21T07:24:19;101375.25;;;6.77;97.90
77450;BME280;66536;53.150;18.172;2024-02-21T07:26:45;101374.80;;;6.81;97.74
77450;BME280;66536;53.150;18.172;2024-02-21T07:29:11;101369.29;;;6.86;97.57
77450;BME280;66536;53.150;18.172;2024-02-21T07:31:41;101369.64;;;6.91;97.46
77450;BME280;66536;53.150;18.172;2024-02-21T07:34:08;101369.77;;;6.94;97.38
77450;BME280;66536;53.150;18.172;2024-02-21T07:36:35;101370.39;;;6.95;97.13
77450;BME280;66536;53.150;18.172;2024-02-21T07:39:03;101375.83;;;6.95;97.01
77450;BME280;66536;53.150;18.172;2024-02-21T07:41:30;101374.06;;;6.94;96.99
77450;BME280;66536;53.150;18.172;2024-02-21T07:43:57;101362.84;;;6.94;96.91
77450;BME280;66536;53.150;18.172;2024-02-21T07:46:23;101365.27;;;6.94;96.83
77450;BME280;66536;53.150;18.172;2024-02-21T07:48:50;101367.13;;;6.96;96.93
77450;BME280;66536;53.150;18.172;2024-02-21T07:51:16;101361.67;;;6.98;96.72
77450;BME280;66536;53.150;18.172;2024-02-21T07:53:44;101360.88;;;7.02;96.73
77450;BME280;66536;53.150;18.172;2024-02-21T07:56:12;101359.90;;;7.06;96.55
77450;BME280;66536;53.150;18.172;2024-02-21T07:58:38;101358.85;;;7.09;96.41
77450;BME280;66536;53.150;18.172;2024-02-21T08:01:04;101358.65;;;7.13;96.24
77450;BME280;66536;53.150;18.172;2024-02-21T08:03:30;101355.00;;;7.18;96.22
77450;BME280;66536;53.150;18.172;2024-02-21T08:05:56;101352.89;;;7.24;96.10
77450;BME280;66536;53.150;18.172;2024-02-21T08:08:23;101344.44;;;7.27;96.06
77450;BME280;66536;53.150;18.172;2024-02-21T08:10:49;101342.03;;;7.30;96.03
77450;BME280;66536;53.150;18.172;2024-02-21T08:13:15;101341.44;;;7.33;95.97
77450;BME280;66536;53.150;18.172;2024-02-21T08:15:41;101329.65;;;7.36;96.16
77450;BME280;66536;53.150;18.172;2024-02-21T08:18:08;101329.22;;;7.37;96.00
77450;BME280;66536;53.150;18.172;2024-02-21T08:20:34;101321.63;;;7.37;95.79
77450;BME280;66536;53.150;18.172;2024-02-21T08:23:01;101319.36;;;7.41;95.83
77450;BME280;66536;53.150;18.172;2024-02-21T08:25:28;101310.02;;;7.47;95.92
77450;BME280;66536;53.150;18.172;2024-02-21T08:27:57;101311.73;;;7.53;95.72
77450;BME280;66536;53.150;18.172;2024-02-21T08:30:24;101310.30;;;7.57;95.57
77450;BME280;66536;53.150;18.172;2024-02-21T08:32:50;101306.27;;;7.64;95.38
77450;BME280;66536;53.150;18.172;2024-02-21T08:35:16;101307.00;;;7.69;95.22
77450;BME280;66536;53.150;18.172;2024-02-21T08:37:45;101303.12;;;7.76;95.12
77450;BME280;66536;53.150;18.172;2024-02-21T08:40:14;101307.36;;;7.81;94.94
77450;BME280;66536;53.150;18.172;2024-02-21T08:42:43;101309.04;;;7.81;94.93
77450;BME280;66536;53.150;18.172;2024-02-21T08:45:10;101314.31;;;7.79;94.94
77450;BME280;66536;53.150;18.172;2024-02-21T08:47:39;101318.52;;;7.75;94.88
77450;BME280;66536;53.150;18.172;2024-02-21T08:50:06;101320.77;;;7.70;94.93
77450;BME280;66536;53.150;18.172;2024-02-21T08:52:33;101316.13;;;7.66;95.06
77450;BME280;66536;53.150;18.172;2024-02-21T08:54:59;101309.02;;;7.62;95.07
77450;BME280;66536;53.150;18.172;2024-02-21T08:57:27;101311.33;;;7.59;95.09
77450;BME280;66536;53.150;18.172;2024-02-21T08:59:53;101302.66;;;7.55;95.14
77450;BME280;66536;53.150;18.172;2024-02-21T09:02:19;101313.10;;;7.52;95.26
77450;BME280;66536;53.150;18.172;2024-02-21T09:04:46;101300.66;;;7.50;95.18
77450;BME280;66536;53.150;18.172;2024-02-21T09:07:12;101304.66;;;7.49;95.26
77450;BME280;66536;53.150;18.172;2024-02-21T09:09:38;101301.95;;;7.49;95.18
77450;BME280;66536;53.150;18.172;2024-02-21T09:12:06;101296.80;;;7.52;95.08
77450;BME280;66536;53.150;18.172;2024-02-21T09:14:33;101300.55;;;7.57;95.15
77450;BME280;66536;53.150;18.172;2024-02-21T09:17:00;101294.69;;;7.61;95.01
77450;BME280;66536;53.150;18.172;2024-02-21T09:19:26;101296.46;;;7.65;94.83
77450;BME280;66536;53.150;18.172;2024-02-21T09:21:55;101296.51;;;7.65;94.54
77450;BME280;66536;53.150;18.172;2024-02-21T09:24:22;101290.69;;;7.66;94.44
77450;BME280;66536;53.150;18.172;2024-02-21T09:26:48;101290.14;;;7.68;94.54
77450;BME280;66536;53.150;18.172;2024-02-21T09:29:18;101280.83;;;7.73;94.60
77450;BME280;66536;53.150;18.172;2024-02-21T09:31:45;101284.60;;;7.74;94.54
77450;BME280;66536;53.150;18.172;2024-02-21T09:34:12;101279.98;;;7.74;94.68
77450;BME280;66536;53.150;18.172;2024-02-21T09:36:38;101284.16;;;7.74;94.68
77450;BME280;66536;53.150;18.172;2024-02-21T09:39:06;101283.93;;;7.71;94.64
77450;BME280;66536;53.150;18.172;2024-02-21T09:41:34;101279.14;;;7.71;94.74
77450;BME280;66536;53.150;18.172;2024-02-21T09:44:02;101278.98;;;7.77;94.61
77450;BME280;66536;53.150;18.172;2024-02-21T09:46:45;101278.23;;;7.79;94.48
77450;BME280;66536;53.150;18.172;2024-02-21T09:49:35;101276.70;;;7.79;94.59
77450;BME280;66536;53.150;18.172;2024-02-21T09:52:49;101278.02;;;7.82;94.48
77450;BME280;66536;53.150;18.172;2024-02-21T09:55:18;101278.30;;;7.80;94.54
77450;BME280;66536;53.150;18.172;2024-02-21T09:57:45;101271.73;;;7.80;94.50
77450;BME280;66536;53.150;18.172;2024-02-21T10:00:12;101265.70;;;7.83;94.50
77450;BME280;66536;53.150;18.172;2024-02-21T10:02:39;101264.09;;;7.87;94.48
77450;BME280;66536;53.150;18.172;2024-02-21T10:05:06;101263.16;;;7.91;94.62
77450;BME280;66536;53.150;18.172;2024-02-21T10:07:34;101263.09;;;7.91;94.62
77450;BME280;66536;53.150;18.172;2024-02-21T10:10:04;101265.16;;;7.85;94.67
77450;BME280;66536;53.150;18.172;2024-02-21T10:12:31;101265.36;;;7.82;94.98
77450;BME280;66536;53.150;18.172;2024-02-21T10:15:06;101265.20;;;7.82;95.19
77450;BME280;66536;53.150;18.172;2024-02-21T10:17:32;101269.89;;;7.83;95.25
77450;BME280;66536;53.150;18.172;2024-02-21T10:20:07;101272.84;;;7.84;95.04
77450;BME280;66536;53.150;18.172;2024-02-21T10:22:35;101272.75;;;7.83;95.15
77450;BME280;66536;53.150;18.172;2024-02-21T10:25:08;101269.41;;;7.80;95.03
77450;BME280;66536;53.150;18.172;2024-02-21T10:27:36;101263.06;;;7.82;95.22
77450;BME280;66536;53.150;18.172;2024-02-21T10:30:05;101257.69;;;7.86;95.04
77450;BME280;66536;53.150;18.172;2024-02-21T10:32:32;101259.41;;;7.89;95.26
77450;BME280;66536;53.150;18.172;2024-02-21T10:35:01;101255.98;;;7.93;95.17
77450;BME280;66536;53.150;18.172;2024-02-21T10:37:30;101248.55;;;7.95;95.03
77450;BME280;66536;53.150;18.172;2024-02-21T10:39:57;101251.73;;;7.97;94.88
77450;BME280;66536;53.150;18.172;2024-02-21T10:42:29;101249.45;;;7.96;94.80
77450;BME280;66536;53.150;18.172;2024-02-21T10:45:01;101244.37;;;7.96;94.87
77450;BME280;66536;53.150;18.172;2024-02-21T10:47:32;101235.63;;;7.98;94.75
77450;BME280;66536;53.150;18.172;2024-02-21T10:50:04;101234.66;;;7.99;94.63
77450;BME280;66536;53.150;18.172;2024-02-21T10:52:48;101232.25;;;7.99;94.83
77450;BME280;66536;53.150;18.172;2024-02-21T10:55:21;101232.29;;;8.02;94.91
77450;BME280;66536;53.150;18.172;2024-02-21T10:57:53;101227.79;;;8.01;94.99
77450;BME280;66536;53.150;18.172;2024-02-21T11:00:20;101221.23;;;8.00;95.23
77450;BME280;66536;53.150;18.172;2024-02-21T11:02:47;101217.38;;;8.10;94.99
77450;BME280;66536;53.150;18.172;2024-02-21T11:05:15;101208.02;;;8.21;94.97
77450;BME280;66536;53.150;18.172;2024-02-21T11:07:42;101206.16;;;8.32;94.42
77450;BME280;66536;53.150;18.172;2024-02-21T11:10:22;101202.69;;;8.36;94.36
77450;BME280;66536;53.150;18.172;2024-02-21T11:15:36;101196.13;;;8.41;94.09
77450;BME280;66536;53.150;18.172;2024-02-21T11:18:03;101195.86;;;8.42;94.13
77450;BME280;66536;53.150;18.172;2024-02-21T11:20:34;101186.02;;;8.52;93.66
77450;BME280;66536;53.150;18.172;2024-02-21T11:23:04;101175.23;;;8.54;93.36
77450;BME280;66536;53.150;18.172;2024-02-21T11:25:34;101172.02;;;8.51;93.62
77450;BME280;66536;53.150;18.172;2024-02-21T11:28:08;101165.97;;;8.53;93.80
77450;BME280;66536;53.150;18.172;2024-02-21T11:30:47;101161.56;;;8.54;93.94
77450;BME280;66536;53.150;18.172;2024-02-21T11:33:42;101156.34;;;8.61;93.86
77450;BME280;66536;53.150;18.172;2024-02-21T11:36:24;101153.04;;;8.64;93.40
77450;BME280;66536;53.150;18.172;2024-02-21T11:38:52;101151.69;;;8.61;93.80
77450;BME280;66536;53.150;18.172;2024-02-21T11:41:19;101143.73;;;8.60;93.71
77450;BME280;66536;53.150;18.172;2024-02-21T11:43:49;101142.90;;;8.64;93.72
77450;BME280;66536;53.150;18.172;2024-02-21T11:46:16;101141.17;;;8.70;93.18
77450;BME280;66536;53.150;18.172;2024-02-21T11:48:42;101137.89;;;8.73;93.05
77450;BME280;66536;53.150;18.172;2024-02-21T11:51:26;101137.05;;;8.73;93.24
77450;BME280;66536;53.150;18.172;2024-02-21T11:53:53;101134.90;;;8.72;92.97
77450;BME280;66536;53.150;18.172;2024-02-21T11:56:20;101141.08;;;8.72;93.03
77450;BME280;66536;53.150;18.172;2024-02-21T11:58:46;101139.35;;;8.72;93.22
77450;BME280;66536;53.150;18.172;2024-02-21T12:01:14;101131.80;;;8.76;93.02
77450;BME280;66536;53.150;18.172;2024-02-21T12:03:42;101138.84;;;8.74;92.41
77450;BME280;66536;53.150;18.172;2024-02-21T12:06:16;101139.53;;;8.71;92.56
77450;BME280;66536;53.150;18.172;2024-02-21T12:08:46;101136.93;;;8.70;92.63
77450;BME280;66536;53.150;18.172;2024-02-21T12:11:18;101128.41;;;8.68;92.44
77450;BME280;66536;53.150;18.172;2024-02-21T12:13:44;101117.95;;;8.66;92.72
77450;BME280;66536;53.150;18.172;2024-02-21T12:16:10;101115.90;;;8.67;92.72
77450;BME280;66536;53.150;18.172;2024-02-21T12:18:36;101110.92;;;8.65;92.61
77450;BME280;66536;53.150;18.172;2024-02-21T12:21:04;101114.74;;;8.67;92.80
77450;BME280;66536;53.150;18.172;2024-02-21T12:23:31;101106.81;;;8.67;92.82
77450;BME280;66536;53.150;18.172;2024-02-21T12:25:59;101105.92;;;8.66;92.76
77450;BME280;66536;53.150;18.172;2024-02-21T12:28:26;101107.77;;;8.62;92.48
77450;BME280;66536;53.150;18.172;2024-02-21T12:30:56;101112.08;;;8.58;92.75
77450;BME280;66536;53.150;18.172;2024-02-21T12:33:22;101103.16;;;8.55;92.86
77450;BME280;66536;53.150;18.172;2024-02-21T12:35:49;101113.67;;;8.51;92.81
77450;BME280;66536;53.150;18.172;2024-02-21T12:38:16;101119.34;;;8.47;93.09
77450;BME280;66536;53.150;18.172;2024-02-21T12:40:44;101118.01;;;8.43;93.27
77450;BME280;66536;53.150;18.172;2024-02-21T12:43:10;101116.80;;;8.40;93.31
77450;BME280;66536;53.150;18.172;2024-02-21T12:45:37;101114.10;;;8.36;93.39
77450;BME280;66536;53.150;18.172;2024-02-21T12:48:04;101105.14;;;8.34;93.72
77450;BME280;66536;53.150;18.172;2024-02-21T12:50:31;101105.95;;;8.36;93.75
77450;BME280;66536;53.150;18.172;2024-02-21T12:52:59;101106.89;;;8.35;93.57
77450;BME280;66536;53.150;18.172;2024-02-21T12:55:27;101109.59;;;8.34;93.52